CMA CGM Cayenne — 2IIX7 — position and weather

sailwx.info

Track history (hours):
 
Tides and Currents Weather Stations Pressure Air Temp Water Temp Dewpoint Dewpoint Depression Visibility Wind Speed Wind Dir Waves Ship Positions

CMA CGM Cayenne

Last reported at 2018-Feb-14 00:13 UTC. Time now 2018-Feb-21 15:35 UTC.
Position S 00°00' W 047°13'.

Length 190 m; draft 6.6 m.

Type: Cargo ship. MMSI: 235110142.

Date/timePositionNaut miles runAvg speedWind from/ knotsBaromVisibWave heightAir tempDewpointWater temp
2018-Feb-14 00:13S 00°00' W 047°13'315.7
2018-Feb-14 00:00N 00°00' W 047°16'816.1
2018-Feb-13 23:30N 00°00' W 047°24'1015.5
2018-Feb-13 22:53S 00°02' W 047°34'616.0
2018-Feb-13 22:30S 00°05' W 047°39'713.9
2018-Feb-13 22:00S 00°09' W 047°45'0 0.4
2018-Feb-13 21:30S 00°09' W 047°45'510.6
2018-Feb-13 21:01S 00°12' W 047°49'814.7
2018-Feb-13 20:28S 00°16' W 047°56'714.5
2018-Feb-13 20:00S 00°19' W 048°02'815.1
2018-Feb-13 19:30S 00°22' W 048°09'714.5
2018-Feb-13 19:00S 00°27' W 048°15'815.1
2018-Feb-13 18:30S 00°32' W 048°20'2714.4
2018-Feb-13 16:38S 00°58' W 048°26'1315.1
2018-Feb-13 15:47S 01°09' W 048°32'2 7.0
2018-Feb-13 15:30S 01°11' W 048°33'714.8
2018-Feb-13 15:01S 01°17' W 048°37'714.9
2018-Feb-13 14:31S 01°23' W 048°42'714.6
2018-Feb-13 14:00S 01°30' W 048°45'2 0.2
2018-Feb-12 23:06S 01°32' W 048°45'0 0.0
2018-Feb-12 22:48S 01°32' W 048°45'0 0.0
2018-Feb-12 17:08S 01°32' W 048°45'0 1.5
2018-Feb-12 17:00S 01°32' W 048°45'4 8.3
2018-Feb-12 16:30S 01°28' W 048°44'715.2
2018-Feb-12 16:01S 01°21' W 048°40'815.4
2018-Feb-12 15:30S 01°15' W 048°36'814.7
2018-Feb-12 15:00S 01°09' W 048°32'3 6.7
2018-Feb-12 14:30S 01°06' W 048°31'510.7
2018-Feb-12 14:00S 01°01' W 048°28'510.8
2018-Feb-12 13:30S 00°56' W 048°27'1811.3
2018-Feb-12 11:55S 00°38' W 048°23'512.3
2018-Feb-12 11:29S 00°34' W 048°21'713.3
2018-Feb-12 11:00S 00°29' W 048°17'815.6
2018-Feb-12 10:30S 00°24' W 048°11'816.8
2018-Feb-12 10:01S 00°20' W 048°03'714.6
2018-Feb-12 09:31S 00°14' W 047°59'816.3
2018-Feb-12 09:00S 00°06' W 047°60'  
2018-Feb-04 00:38N 17°24' W 063°04'517.6
2018-Feb-04 00:22N 17°29' W 063°05'  
Track history (hours):
 
Tides and Currents Weather Stations Pressure Air Temp Water Temp Dewpoint Dewpoint Depression Visibility Wind Speed Wind Dir Waves Ship Positions

CMA CGM Cayenne

Last reported at 2018-Feb-14 00:13 UTC. Time now 2018-Feb-21 15:35 UTC.
Position S 00°00' W 047°13'.

Length 190 m; draft 6.6 m.

Type: Cargo ship. MMSI: 235110142.

Date/timePositionNaut miles runAvg speedWind from/ knotsBaromVisibWave heightAir tempDewpointWater temp
2018-Feb-14 00:13S 00°00' W 047°13'315.7
2018-Feb-14 00:00N 00°00' W 047°16'816.1
2018-Feb-13 23:30N 00°00' W 047°24'1015.5
2018-Feb-13 22:53S 00°02' W 047°34'616.0
2018-Feb-13 22:30S 00°05' W 047°39'713.9
2018-Feb-13 22:00S 00°09' W 047°45'0 0.4
2018-Feb-13 21:30S 00°09' W 047°45'510.6
2018-Feb-13 21:01S 00°12' W 047°49'814.7
2018-Feb-13 20:28S 00°16' W 047°56'714.5
2018-Feb-13 20:00S 00°19' W 048°02'815.1
2018-Feb-13 19:30S 00°22' W 048°09'714.5
2018-Feb-13 19:00S 00°27' W 048°15'815.1
2018-Feb-13 18:30S 00°32' W 048°20'2714.4
2018-Feb-13 16:38S 00°58' W 048°26'1315.1
2018-Feb-13 15:47S 01°09' W 048°32'2 7.0
2018-Feb-13 15:30S 01°11' W 048°33'714.8
2018-Feb-13 15:01S 01°17' W 048°37'714.9
2018-Feb-13 14:31S 01°23' W 048°42'714.6
2018-Feb-13 14:00S 01°30' W 048°45'2 0.2
2018-Feb-12 23:06S 01°32' W 048°45'0 0.0
2018-Feb-12 22:48S 01°32' W 048°45'0 0.0
2018-Feb-12 17:08S 01°32' W 048°45'0 1.5
2018-Feb-12 17:00S 01°32' W 048°45'4 8.3
2018-Feb-12 16:30S 01°28' W 048°44'715.2
2018-Feb-12 16:01S 01°21' W 048°40'815.4
2018-Feb-12 15:30S 01°15' W 048°36'814.7
2018-Feb-12 15:00S 01°09' W 048°32'3 6.7
2018-Feb-12 14:30S 01°06' W 048°31'510.7
2018-Feb-12 14:00S 01°01' W 048°28'510.8
2018-Feb-12 13:30S 00°56' W 048°27'1811.3
2018-Feb-12 11:55S 00°38' W 048°23'512.3
2018-Feb-12 11:29S 00°34' W 048°21'713.3
2018-Feb-12 11:00S 00°29' W 048°17'815.6
2018-Feb-12 10:30S 00°24' W 048°11'816.8
2018-Feb-12 10:01S 00°20' W 048°03'714.6
2018-Feb-12 09:31S 00°14' W 047°59'816.3
2018-Feb-12 09:00S 00°06' W 047°60'  
2018-Feb-04 00:38N 17°24' W 063°04'517.6
2018-Feb-04 00:22N 17°29' W 063°05'  

Dump ship's entire track history